Time;durP1;ratioP1;P1;durP2;ratioP2;P2;SDS_P1;SDS_P2;PMS_P1;PMS_P2;Temp;Humidity;BMP_temperature;BMP_pressure;BME280_temperature;BME280_humidity;BME280_pressure;Samples;Min_cycle;Max_cycle;Signal;HPM_P1;HPM_P2
2022/08/18 00:00:43;;;;;;;12.10;4.32;;;19.10;99.90;;;;;;5044610;28;20471;-82
2022/08/18 00:03:10;;;;;;;11.85;4.47;;;19.10;99.90;;;;;;5044502;28;20123;-82
2022/08/18 00:05:36;;;;;;;11.45;4.13;;;19.20;99.90;;;;;;5045269;28;20041;-82
2022/08/18 00:08:02;;;;;;;10.77;4.22;;;19.10;99.90;;;;;;5024425;28;20043;-83
2022/08/18 00:10:28;;;;;;;10.40;4.32;;;19.00;99.90;;;;;;5041477;28;20087;-82
2022/08/18 00:12:53;;;;;;;14.30;4.82;;;19.00;99.90;;;;;;5045555;28;20044;-82
2022/08/18 00:15:20;;;;;;;12.40;4.82;;;19.00;99.90;;;;;;5040657;28;20041;-81
2022/08/18 00:17:45;;;;;;;9.90;4.82;;;19.00;99.90;;;;;;5044633;28;20045;-82
2022/08/18 00:20:20;;;;;;;9.90;4.70;;;18.90;99.90;;;;;;5045181;28;20506;-83
2022/08/18 00:22:47;;;;;;;13.73;5.32;;;18.90;99.90;;;;;;5060745;28;20090;-82
2022/08/18 00:25:14;;;;;;;13.40;4.90;;;18.80;99.90;;;;;;5048553;28;21551;-82
2022/08/18 00:27:40;;;;;;;14.20;5.22;;;18.70;99.90;;;;;;5066506;28;20406;-82
2022/08/18 00:30:10;;;;;;;11.60;4.90;;;18.90;99.90;;;;;;5048996;28;20039;-82
2022/08/18 00:32:42;;;;;;;15.32;5.03;;;18.80;99.90;;;;;;5046155;28;20609;-81
2022/08/18 00:35:29;;;;;;;19.25;5.28;;;18.90;99.90;;;;;;5049273;28;20047;-82
2022/08/18 00:37:57;;;;;;;12.65;4.97;;;18.90;99.90;;;;;;5049679;28;20041;-83
2022/08/18 00:40:29;;;;;;;12.57;5.40;;;18.90;99.90;;;;;;5022269;28;20502;-83
2022/08/18 00:43:00;;;;;;;16.02;5.95;;;18.90;99.90;;;;;;5047631;28;20060;-82
2022/08/18 00:45:35;;;;;;;10.40;5.13;;;18.90;99.90;;;;;;5030048;28;20048;-82
2022/08/18 00:48:02;;;;;;;12.30;5.18;;;18.80;99.90;;;;;;5045388;28;20056;-82
2022/08/18 00:50:33;;;;;;;14.57;5.20;;;18.80;99.90;;;;;;5047881;28;20521;-82
2022/08/18 00:53:06;;;;;;;11.10;5.45;;;18.80;99.90;;;;;;5048102;28;20051;-83
2022/08/18 00:55:32;;;;;;;9.95;5.50;;;18.80;99.90;;;;;;5045596;28;20033;-84
2022/08/18 00:58:06;;;;;;;13.00;5.50;;;18.70;99.90;;;;;;5047012;28;20072;-83
2022/08/18 01:00:32;;;;;;;8.82;5.13;;;18.80;99.90;;;;;;5048614;28;20067;-83
2022/08/18 01:03:04;;;;;;;11.52;5.32;;;18.80;99.90;;;;;;5046460;28;20029;-83
2022/08/18 01:05:39;;;;;;;12.00;5.55;;;18.80;99.90;;;;;;5029522;28;20087;-82
2022/08/18 01:08:10;;;;;;;11.20;5.30;;;18.80;99.90;;;;;;5048021;28;20037;-82
2022/08/18 01:10:36;;;;;;;16.77;5.82;;;18.90;99.90;;;;;;5046017;28;20037;-83
2022/08/18 01:13:02;;;;;;;14.80;5.93;;;18.70;99.90;;;;;;5029007;28;20028;-83
2022/08/18 01:15:29;;;;;;;15.45;6.38;;;18.70;99.90;;;;;;5041444;28;20044;-83
2022/08/18 01:23:53;;;;;;;10.85;5.55;;;18.70;99.90;;;;;;5045201;28;20041;-83
2022/08/18 01:26:21;;;;;;;15.05;5.90;;;18.70;99.90;;;;;;5048389;28;20041;-83
2022/08/18 01:28:48;;;;;;;10.98;5.30;;;18.70;99.90;;;;;;5045183;28;20029;-83
2022/08/18 01:31:32;;;;;;;11.75;5.90;;;18.60;99.90;;;;;;5029821;28;20040;-81
2022/08/18 01:33:58;;;;;;;;;;;18.70;99.90;;;;;;5029486;28;20052;-82
2022/08/18 01:36:24;;;;;;;13.07;5.88;;;18.70;99.90;;;;;;5047327;28;20284;-82
2022/08/18 01:38:51;;;;;;;12.63;5.47;;;18.70;99.90;;;;;;5047289;28;20045;-83
2022/08/18 01:41:20;;;;;;;15.30;6.47;;;18.60;99.90;;;;;;5029550;28;20991;-83
2022/08/18 01:43:46;;;;;;;13.15;5.95;;;18.60;99.90;;;;;;5030933;28;20065;-83
2022/08/18 01:46:12;;;;;;;15.48;6.68;;;18.70;99.90;;;;;;5027203;28;20036;-83
2022/08/18 01:48:38;;;;;;;12.88;6.55;;;18.60;99.90;;;;;;5029419;28;20059;-82
2022/08/18 01:51:08;;;;;;;12.45;6.40;;;18.60;99.90;;;;;;5046674;28;20521;-82
2022/08/18 01:53:35;;;;;;;15.07;6.57;;;18.70;99.90;;;;;;5047315;28;20600;-83
2022/08/18 01:56:04;;;;;;;18.35;7.55;;;18.60;99.90;;;;;;5025218;28;20045;-82
2022/08/18 01:58:34;;;;;;;19.70;7.05;;;18.70;99.90;;;;;;5044319;28;20033;-83
2022/08/18 02:01:01;;;;;;;14.75;6.75;;;18.70;99.90;;;;;;5032242;28;20056;-83
2022/08/18 02:03:33;;;;;;;16.25;6.95;;;18.70;99.90;;;;;;5048300;28;20116;-83
2022/08/18 02:06:01;;;;;;;12.98;6.00;;;18.70;99.90;;;;;;5047791;28;20135;-82
2022/08/18 02:08:28;;;;;;;13.23;6.40;;;18.80;99.90;;;;;;5046922;28;20033;-82
2022/08/18 02:10:57;;;;;;;16.27;7.55;;;18.80;99.90;;;;;;5046641;28;20045;-83
2022/08/18 02:13:22;;;;;;;15.88;6.72;;;18.70;99.90;;;;;;5047723;28;20045;-83
2022/08/18 02:15:48;;;;;;;16.27;7.10;;;18.80;99.90;;;;;;5048468;28;20051;-83
2022/08/18 02:18:20;;;;;;;20.40;6.97;;;18.80;99.90;;;;;;5049134;28;20033;-82
2022/08/18 02:20:46;;;;;;;15.38;6.88;;;18.80;99.90;;;;;;5041640;28;20037;-84
2022/08/18 02:23:13;;;;;;;14.15;6.78;;;18.80;99.90;;;;;;5027183;28;20033;-82
2022/08/18 02:25:41;;;;;;;15.43;6.70;;;18.70;99.90;;;;;;5046009;28;20443;-84
2022/08/18 02:28:07;;;;;;;15.52;7.00;;;18.70;99.90;;;;;;5046620;28;20071;-84
2022/08/18 02:30:36;;;;;;;17.48;7.05;;;18.70;99.90;;;;;;5027140;28;20189;-84
2022/08/18 02:33:05;;;;;;;19.75;7.15;;;18.70;99.90;;;;;;5047361;28;20048;-84
2022/08/18 02:35:32;;;;;;;15.48;7.05;;;18.70;99.90;;;;;;5028098;28;20406;-82
2022/08/18 02:37:59;;;;;;;13.20;6.88;;;18.70;99.90;;;;;;5029034;28;20096;-83
2022/08/18 02:40:25;;;;;;;18.23;7.20;;;18.60;99.90;;;;;;5025035;28;20048;-84
2022/08/18 02:42:51;;;;;;;20.65;7.70;;;18.60;99.90;;;;;;5046360;28;20033;-83
2022/08/18 02:45:17;;;;;;;17.25;7.15;;;18.60;99.90;;;;;;5045727;28;20403;-84
2022/08/18 02:47:43;;;;;;;16.80;7.45;;;18.60;99.90;;;;;;5047691;28;20047;-83
2022/08/18 02:50:09;;;;;;;15.75;7.00;;;18.60;99.90;;;;;;5044367;28;20037;-83
2022/08/18 02:52:35;;;;;;;15.38;7.82;;;18.60;99.90;;;;;;5047475;28;20048;-82
2022/08/18 02:55:01;;;;;;;16.38;7.30;;;18.60;99.90;;;;;;5047209;28;20783;-83
2022/08/18 02:57:28;;;;;;;14.48;7.13;;;18.60;99.90;;;;;;5044367;28;20033;-83
2022/08/18 02:59:54;;;;;;;15.43;7.75;;;18.60;99.90;;;;;;5044952;28;20091;-82
2022/08/18 03:02:20;;;;;;;19.48;7.68;;;18.70;99.90;;;;;;5044618;28;20036;-83
2022/08/18 03:04:46;;;;;;;17.45;7.78;;;18.70;99.90;;;;;;5029099;28;20115;-83
2022/08/18 03:07:13;;;;;;;15.88;7.07;;;18.70;99.90;;;;;;5045776;28;20132;-84
2022/08/18 03:09:40;;;;;;;15.27;7.18;;;18.70;99.90;;;;;;5044069;28;20037;-84
2022/08/18 03:12:07;;;;;;;13.20;7.47;;;18.60;99.90;;;;;;5046330;28;20433;-83
2022/08/18 03:14:34;;;;;;;14.73;7.68;;;18.60;99.90;;;;;;5029428;28;20049;-83
2022/08/18 03:17:02;;;;;;;21.15;7.68;;;18.60;99.90;;;;;;5047830;28;20119;-84
2022/08/18 03:19:28;;;;;;;16.52;8.25;;;18.60;99.90;;;;;;5027455;28;20029;-84
2022/08/18 03:21:54;;;;;;;15.98;7.53;;;18.60;99.90;;;;;;5047562;28;20041;-85
2022/08/18 03:24:21;;;;;;;18.40;8.60;;;18.60;99.90;;;;;;5029084;28;20486;-83
2022/08/18 03:26:46;;;;;;;18.95;8.18;;;18.60;99.90;;;;;;5047587;28;20037;-83
2022/08/18 03:29:13;;;;;;;18.98;8.38;;;18.50;99.90;;;;;;5031487;28;20392;-83
2022/08/18 03:31:41;;;;;;;18.35;9.10;;;18.50;99.90;;;;;;5045165;28;20094;-83
2022/08/18 03:34:07;;;;;;;19.13;9.27;;;18.50;99.90;;;;;;5046425;28;20379;-83
2022/08/18 03:36:34;;;;;;;16.23;7.72;;;18.50;99.90;;;;;;5043707;28;20041;-82
2022/08/18 03:39:09;;;;;;;13.80;8.18;;;18.50;99.90;;;;;;5046381;28;20502;-83
2022/08/18 03:41:38;;;;;;;17.75;8.27;;;18.50;99.90;;;;;;5021695;28;20119;-83
2022/08/18 03:44:03;;;;;;;16.88;8.13;;;18.50;99.90;;;;;;5045641;28;20464;-82
2022/08/18 03:46:29;;;;;;;24.63;9.32;;;18.50;99.90;;;;;;5046288;28;20071;-83
2022/08/18 03:48:57;;;;;;;25.60;8.60;;;18.50;99.90;;;;;;5043937;28;20175;-82
2022/08/18 03:51:26;;;;;;;17.75;8.55;;;18.60;99.90;;;;;;5026198;28;20036;-83
2022/08/18 03:53:58;;;;;;;15.10;8.88;;;18.60;99.90;;;;;;5027822;28;20499;-85
2022/08/18 03:56:26;;;;;;;17.27;8.70;;;18.60;99.90;;;;;;5029384;28;20048;-82
2022/08/18 03:59:00;;;;;;;13.93;8.35;;;18.60;99.90;;;;;;5045329;28;20048;-82
2022/08/18 04:01:28;;;;;;;;;;;18.60;99.90;;;;;;5025502;28;20099;-82
2022/08/18 04:03:57;;;;;;;14.18;7.25;;;18.70;99.90;;;;;;5024193;28;19917;-83
2022/08/18 04:06:29;;;;;;;15.77;8.23;;;18.50;99.90;;;;;;5046040;28;20037;-82
2022/08/18 04:08:57;;;;;;;14.98;7.70;;;18.60;99.90;;;;;;5048227;28;20045;-84
2022/08/18 04:11:24;;;;;;;16.40;7.82;;;18.60;99.90;;;;;;5027732;28;21481;-82
2022/08/18 04:13:49;;;;;;;14.32;7.47;;;18.50;99.90;;;;;;5022306;28;20132;-83
2022/08/18 04:16:15;;;;;;;13.93;7.82;;;18.60;99.90;;;;;;5046481;28;20127;-83
2022/08/18 04:18:41;;;;;;;11.15;7.50;;;18.50;99.90;;;;;;5045724;28;20052;-82
2022/08/18 04:21:10;;;;;;;14.05;8.40;;;18.50;99.90;;;;;;5046346;28;20028;-83
2022/08/18 04:23:37;;;;;;;13.60;8.18;;;18.50;99.90;;;;;;5045632;28;20110;-81
2022/08/18 04:26:04;;;;;;;13.88;8.48;;;18.50;99.90;;;;;;5045372;28;20045;-83
2022/08/18 04:28:29;;;;;;;15.60;8.38;;;18.50;99.90;;;;;;5045448;28;20094;-82
2022/08/18 04:30:58;;;;;;;14.57;9.10;;;18.50;99.90;;;;;;5045255;28;20119;-81
2022/08/18 04:33:26;;;;;;;19.30;9.60;;;18.50;99.90;;;;;;5044021;28;20116;-83
2022/08/18 04:35:52;;;;;;;16.13;8.82;;;18.50;99.90;;;;;;5045907;28;20040;-82
2022/08/18 04:38:18;;;;;;;14.60;8.65;;;18.50;99.90;;;;;;5024833;28;20041;-83
2022/08/18 04:40:44;;;;;;;13.60;8.73;;;18.50;99.90;;;;;;5040379;28;20045;-82
2022/08/18 04:43:14;;;;;;;13.05;9.50;;;18.50;99.90;;;;;;5060325;28;20089;-82
2022/08/18 04:45:41;;;;;;;16.38;9.00;;;18.50;99.90;;;;;;5044863;28;20119;-83
2022/08/18 04:48:06;;;;;;;14.65;8.77;;;18.50;99.90;;;;;;5022822;28;20048;-82
2022/08/18 04:50:32;;;;;;;11.43;8.35;;;18.50;99.90;;;;;;5026550;28;20491;-83
2022/08/18 04:55:47;;;;;;;;;;;18.50;99.90;;;;;;5041064;28;20041;-82
2022/08/18 04:58:15;;;;;;;14.50;8.95;;;18.60;99.90;;;;;;5058505;28;20462;-81
2022/08/18 05:00:42;;;;;;;15.30;8.45;;;18.60;99.90;;;;;;5043531;28;20041;-82
2022/08/18 05:03:09;;;;;;;16.40;9.18;;;18.60;99.90;;;;;;5044412;28;20037;-82
2022/08/18 05:05:34;;;;;;;15.90;8.90;;;18.50;99.90;;;;;;5044079;28;20052;-82
2022/08/18 05:08:00;;;;;;;20.40;10.07;;;18.60;99.90;;;;;;5041823;28;20036;-83
2022/08/18 05:10:25;;;;;;;13.95;8.75;;;18.60;99.90;;;;;;5030571;28;20049;-82
2022/08/18 05:12:51;;;;;;;12.63;9.25;;;18.70;99.90;;;;;;5048136;28;20171;-82
2022/08/18 05:15:17;;;;;;;14.98;9.25;;;18.70;99.90;;;;;;5028548;28;20041;-83
2022/08/18 05:17:44;;;;;;;16.83;9.93;;;18.70;99.90;;;;;;5046580;28;20068;-80
2022/08/18 05:20:10;;;;;;;17.20;10.18;;;18.70;99.90;;;;;;5046250;28;20495;-82
2022/08/18 05:22:40;;;;;;;16.17;10.50;;;18.70;99.90;;;;;;5048345;28;20032;-83
2022/08/18 05:25:11;;;;;;;18.48;11.40;;;18.70;99.90;;;;;;5045233;28;20048;-83
2022/08/18 05:27:41;;;;;;;14.68;10.57;;;18.70;99.90;;;;;;5045402;28;20033;-83
2022/08/18 05:30:08;;;;;;;13.43;10.32;;;18.70;99.90;;;;;;5049423;28;20110;-82
2022/08/18 05:32:41;;;;;;;14.05;10.70;;;18.70;99.90;;;;;;5048618;28;20049;-82
2022/08/18 05:35:12;;;;;;;15.88;10.68;;;18.60;99.90;;;;;;5025046;28;20061;-84
2022/08/18 05:37:46;;;;;;;15.77;9.95;;;18.60;99.90;;;;;;5049895;28;20029;-84
2022/08/18 05:40:13;;;;;;;15.95;9.35;;;18.60;99.90;;;;;;5043686;28;20037;-83
2022/08/18 05:42:40;;;;;;;13.70;9.65;;;18.70;99.90;;;;;;5031161;28;20040;-82
2022/08/18 05:45:14;;;;;;;14.02;9.82;;;18.70;99.90;;;;;;5046319;28;20410;-83
2022/08/18 05:47:40;;;;;;;15.75;9.35;;;18.80;99.90;;;;;;5048841;28;20252;-82
2022/08/18 05:50:11;;;;;;;12.27;8.90;;;18.80;99.90;;;;;;5064583;28;20121;-82
2022/08/18 05:52:47;;;;;;;11.90;8.60;;;18.80;99.90;;;;;;5046986;28;20036;-83
2022/08/18 05:58:11;;;;;;;11.13;7.53;;;18.80;99.90;;;;;;5066153;28;20045;-83
2022/08/18 06:00:38;;;;;;;13.85;7.38;;;18.90;99.90;;;;;;5065246;28;20141;-82
2022/08/18 06:03:03;;;;;;;13.52;6.82;;;18.90;99.90;;;;;;5027824;28;20060;-82
2022/08/18 06:05:37;;;;;;;10.23;6.55;;;18.90;99.90;;;;;;5031318;28;20076;-82
2022/08/18 06:08:09;;;;;;;12.13;6.63;;;19.00;99.90;;;;;;5031459;28;20453;-82
2022/08/18 06:10:46;;;;;;;9.90;6.47;;;19.10;99.90;;;;;;5048124;28;20055;-81
2022/08/18 06:13:12;;;;;;;17.27;7.32;;;19.10;99.90;;;;;;5048572;28;20415;-83
2022/08/18 06:15:44;;;;;;;11.85;7.03;;;19.30;99.90;;;;;;5045314;28;20044;-81
2022/08/18 06:18:37;;;;;;;12.00;7.28;;;19.20;99.90;;;;;;5024387;28;20033;-83
2022/08/18 06:21:34;;;;;;;12.48;7.18;;;19.20;99.90;;;;;;5046098;28;20316;-83
2022/08/18 06:24:26;;;;;;;14.63;7.22;;;19.20;99.90;;;;;;5047418;28;20037;-83
2022/08/18 06:27:08;;;;;;;14.05;7.22;;;19.10;99.90;;;;;;5026339;28;20510;-82
2022/08/18 06:30:05;;;;;;;11.13;6.53;;;19.10;99.90;;;;;;5063858;28;20133;-81
2022/08/18 06:33:06;;;;;;;7.88;5.53;;;19.10;99.90;;;;;;5042125;28;20044;-81
2022/08/18 06:35:37;;;;;;;10.32;5.50;;;19.00;99.90;;;;;;5022712;28;20055;-81
2022/08/18 06:41:08;;;;;;;12.70;5.97;;;19.10;99.90;;;;;;5044887;28;20037;-82
2022/08/18 06:43:37;;;;;;;12.68;6.47;;;19.10;99.90;;;;;;5028091;28;20048;-81
2022/08/18 06:46:14;;;;;;;12.20;6.13;;;19.10;99.90;;;;;;5045033;28;20111;-82
2022/08/18 06:48:53;;;;;;;12.68;6.05;;;19.10;99.90;;;;;;5041109;28;20041;-81
2022/08/18 06:51:21;;;;;;;10.38;5.60;;;19.10;99.90;;;;;;5028669;28;20052;-82
2022/08/18 06:54:00;;;;;;;12.63;5.43;;;19.10;99.90;;;;;;5044457;28;20051;-84
2022/08/18 06:56:47;;;;;;;9.95;4.80;;;19.10;99.90;;;;;;5046356;28;20037;-82
2022/08/18 06:59:26;;;;;;;12.05;4.30;;;19.10;99.90;;;;;;5044683;28;20430;-83
2022/08/18 07:02:37;;;;;;;7.97;4.43;;;19.10;99.90;;;;;;5045253;28;20056;-83
2022/08/18 07:05:06;;;;;;;8.15;4.10;;;19.10;99.90;;;;;;5042161;28;20080;-84
2022/08/18 07:07:40;;;;;;;8.93;3.70;;;19.10;99.90;;;;;;5042884;28;20116;-83
2022/08/18 07:10:28;;;;;;;7.20;3.53;;;19.10;99.90;;;;;;5030754;28;20372;-83
2022/08/18 07:13:11;;;;;;;6.63;3.10;;;19.10;99.90;;;;;;5062139;28;20044;-82
2022/08/18 07:15:37;;;;;;;9.23;3.80;;;19.00;99.90;;;;;;5044713;28;20037;-84
2022/08/18 07:18:06;;;;;;;10.38;3.30;;;19.00;99.90;;;;;;5046012;28;20052;-83
2022/08/18 07:20:47;;;;;;;9.93;3.00;;;18.90;99.90;;;;;;5045112;28;20043;-85
2022/08/18 07:23:30;;;;;;;12.65;3.90;;;18.90;99.90;;;;;;5044506;28;20112;-84
2022/08/18 07:26:11;;;;;;;10.77;3.50;;;18.90;99.90;;;;;;5045837;28;20048;-83
2022/08/18 07:28:40;;;;;;;13.05;3.00;;;18.90;99.90;;;;;;5045092;28;20041;-83
2022/08/18 07:31:34;;;;;;;10.75;4.05;;;18.90;99.90;;;;;;5042963;28;20055;-83
2022/08/18 07:34:12;;;;;;;13.38;3.90;;;19.00;99.90;;;;;;5045359;28;20041;-84
2022/08/18 07:36:48;;;;;;;15.07;4.15;;;19.00;99.90;;;;;;5029427;28;20041;-82
2022/08/18 07:39:30;;;;;;;11.18;3.95;;;19.10;99.90;;;;;;5057191;28;20129;-82
2022/08/18 07:42:05;;;;;;;12.80;3.65;;;19.10;99.90;;;;;;5044978;28;20083;-82
2022/08/18 07:45:03;;;;;;;10.70;4.07;;;19.10;99.90;;;;;;5046397;28;20400;-83
2022/08/18 07:47:37;;;;;;;10.30;4.20;;;19.30;99.90;;;;;;5042816;28;20541;-84
2022/08/18 07:50:05;;;;;;;8.75;3.42;;;19.30;99.90;;;;;;5042233;28;20033;-83
2022/08/18 07:52:37;;;;;;;9.43;3.58;;;19.40;99.90;;;;;;5043945;28;20033;-83
2022/08/18 07:55:38;;;;;;;9.35;3.53;;;19.50;99.90;;;;;;5018735;28;20037;-83
2022/08/18 07:58:42;;;;;;;7.95;3.70;;;19.50;99.90;;;;;;5006243;28;20064;-84
2022/08/18 08:01:45;;;;;;;10.50;3.93;;;19.70;99.90;;;;;;5006099;28;20080;-84
2022/08/18 08:04:19;;;;;;;7.90;3.80;;;19.60;99.90;;;;;;5046313;28;20041;-83
2022/08/18 08:06:48;;;;;;;;;;;19.70;99.90;;;;;;5032967;28;20039;-84
2022/08/18 08:09:49;;;;;;;7.78;3.00;;;19.70;99.90;;;;;;5048312;28;19926;-84
2022/08/18 08:12:41;;;;;;;9.30;2.85;;;19.70;99.90;;;;;;5050358;28;20044;-82
2022/08/18 08:15:36;;;;;;;5.30;2.38;;;19.70;99.90;;;;;;5023086;28;20048;-81
2022/08/18 08:18:08;;;;;;;6.10;2.33;;;19.70;99.90;;;;;;5045702;28;20500;-83
2022/08/18 08:20:50;;;;;;;8.27;2.45;;;19.90;99.90;;;;;;5042937;28;20072;-82
2022/08/18 08:23:31;;;;;;;5.70;2.20;;;19.90;99.90;;;;;;5044359;28;20075;-82
2022/08/18 08:26:26;;;;;;;4.88;2.00;;;20.10;99.90;;;;;;5042417;28;20045;-83
2022/08/18 08:29:05;;;;;;;6.50;2.30;;;20.20;99.90;;;;;;5044808;28;20048;-82
2022/08/18 08:32:00;;;;;;;7.18;2.40;;;20.50;99.90;;;;;;5059896;28;20039;-82
2022/08/18 08:34:52;;;;;;;4.35;2.15;;;20.80;99.90;;;;;;5038873;28;20118;-83
2022/08/18 08:37:28;;;;;;;3.72;2.05;;;20.80;99.90;;;;;;5031650;28;20033;-84
2022/08/18 08:40:01;;;;;;;5.18;2.15;;;20.70;99.90;;;;;;5041917;28;20064;-84
2022/08/18 08:42:59;;;;;;;4.63;1.90;;;20.70;99.90;;;;;;5047876;28;20151;-84
2022/08/18 08:45:25;;;;;;;3.47;1.95;;;20.50;99.90;;;;;;5045463;28;20299;-84
2022/08/18 08:48:06;;;;;;;4.65;1.70;;;20.60;99.90;;;;;;5032311;28;20048;-83
2022/08/18 08:50:45;;;;;;;3.35;1.60;;;20.80;99.90;;;;;;5023253;28;20380;-84
2022/08/18 08:53:42;;;;;;;2.88;1.70;;;20.80;99.90;;;;;;5049043;28;20068;-85
2022/08/18 08:56:12;;;;;;;3.80;1.60;;;20.70;99.90;;;;;;5057006;28;20048;-85
2022/08/18 08:59:03;;;;;;;4.97;1.70;;;20.80;99.90;;;;;;5026502;28;20500;-85
2022/08/18 09:01:53;;;;;;;4.63;1.67;;;20.70;99.90;;;;;;5043345;28;20094;-84
2022/08/18 09:04:38;;;;;;;4.97;1.83;;;20.60;99.90;;;;;;5033675;28;20052;-84
2022/08/18 09:07:09;;;;;;;3.97;1.85;;;20.60;99.90;;;;;;5053557;28;20072;-85
2022/08/18 09:09:54;;;;;;;3.60;1.75;;;20.60;99.90;;;;;;5036811;28;20041;-85
2022/08/18 09:12:55;;;;;;;5.60;1.98;;;20.90;99.90;;;;;;5036630;28;20037;-85
2022/08/18 09:15:34;;;;;;;4.05;1.88;;;20.90;99.90;;;;;;5053302;28;20069;-83
2022/08/18 09:18:23;;;;;;;3.40;2.00;;;21.00;99.90;;;;;;5053230;28;20037;-85
2022/08/18 09:20:56;;;;;;;4.55;2.28;;;21.00;99.90;;;;;;5036831;28;20052;-84
2022/08/18 09:23:29;;;;;;;5.22;2.25;;;20.90;99.90;;;;;;5053388;28;20033;-86
2022/08/18 09:25:59;;;;;;;6.53;2.25;;;21.00;99.90;;;;;;5049241;28;20033;-85
2022/08/18 09:28:27;;;;;;;5.25;2.45;;;21.00;99.90;;;;;;5036072;28;20040;-85
2022/08/18 09:31:14;;;;;;;8.93;2.13;;;20.90;99.90;;;;;;5036613;28;20522;-83
2022/08/18 09:33:42;;;;;;;3.78;2.00;;;20.90;99.90;;;;;;5052266;28;20418;-85
2022/08/18 09:36:32;;;;;;;5.88;2.00;;;21.00;99.90;;;;;;5036104;28;20052;-85
2022/08/18 09:42:14;;;;;;;4.25;1.70;;;21.40;99.90;;;;;;5052874;28;20048;-86
2022/08/18 09:44:40;;;;;;;4.90;2.10;;;21.90;99.90;;;;;;5052712;28;20040;-86
2022/08/18 09:47:07;;;;;;;3.25;2.05;;;22.10;99.90;;;;;;5051258;28;20104;-86
2022/08/18 09:49:46;;;;;;;4.10;2.15;;;22.20;99.90;;;;;;5049383;28;20037;-85
2022/08/18 09:52:21;;;;;;;2.83;1.80;;;22.30;99.90;;;;;;5029949;28;20033;-85
2022/08/18 09:54:57;;;;;;;4.40;1.80;;;22.40;99.90;;;;;;5032722;28;20388;-87
2022/08/18 09:57:35;;;;;;;2.70;1.50;;;22.70;99.90;;;;;;5015773;28;20467;-84
2022/08/18 10:00:06;;;;;;;4.15;1.77;;;22.60;99.90;;;;;;5017233;28;20522;-86
2022/08/18 10:02:31;;;;;;;4.00;1.60;;;22.60;99.90;;;;;;5052773;28;20499;-85
2022/08/18 10:05:15;;;;;;;4.00;1.65;;;22.60;99.90;;;;;;5035618;28;20037;-87
2022/08/18 10:08:00;;;;;;;3.72;1.50;;;22.60;99.90;;;;;;5036228;28;20037;-85
2022/08/18 10:10:50;;;;;;;3.28;1.60;;;22.60;99.90;;;;;;5036052;28;20102;-85
2022/08/18 10:13:48;;;;;;;3.13;1.60;;;22.60;99.90;;;;;;5052479;28;20041;-85
2022/08/18 10:16:32;;;;;;;6.50;1.60;;;22.60;99.90;;;;;;5052273;28;20044;-83
2022/08/18 10:19:19;;;;;;;3.80;1.45;;;22.70;99.90;;;;;;5034412;28;20266;-85
2022/08/18 10:22:00;;;;;;;2.92;1.48;;;22.30;99.90;;;;;;5034132;28;20041;-84
2022/08/18 10:24:36;;;;;;;4.13;1.75;;;22.00;99.90;;;;;;5052171;28;20041;-84
2022/08/18 10:27:03;;;;;;;2.55;1.60;;;21.90;99.90;;;;;;5052406;28;20041;-85
2022/08/18 10:29:30;;;;;;;3.70;1.63;;;21.80;99.90;;;;;;5052323;28;20037;-85
2022/08/18 10:31:56;;;;;;;4.78;1.88;;;21.90;99.90;;;;;;5052468;28;20402;-87
2022/08/18 10:34:41;;;;;;;3.80;1.60;;;21.80;99.90;;;;;;5035593;28;20036;-85
2022/08/18 10:37:26;;;;;;;5.18;1.65;;;21.80;99.90;;;;;;5035128;28;20239;-85
2022/08/18 10:39:57;;;;;;;6.13;1.92;;;22.00;99.90;;;;;;5035139;28;20041;-85
2022/08/18 10:42:49;;;;;;;3.65;1.55;;;22.10;99.90;;;;;;5051904;28;20041;-85
2022/08/18 10:45:22;;;;;;;4.18;1.52;;;22.20;99.90;;;;;;5051575;28;20064;-85
2022/08/18 10:48:20;;;;;;;2.88;1.45;;;22.40;99.90;;;;;;5049912;28;20565;-85
2022/08/18 10:51:05;;;;;;;2.20;1.40;;;22.50;99.90;;;;;;5035155;28;20037;-84
2022/08/18 10:53:50;;;;;;;3.20;1.40;;;22.70;99.90;;;;;;5034619;28;20113;-84
2022/08/18 10:56:29;;;;;;;4.53;1.60;;;22.90;99.90;;;;;;5032357;28;20099;-85
2022/08/18 10:59:11;;;;;;;3.67;1.60;;;22.90;99.90;;;;;;5051465;28;20098;-85
2022/08/18 11:02:30;;;;;;;3.92;1.40;;;23.10;99.90;;;;;;5034954;28;20094;-83
2022/08/18 11:04:57;;;;;;;3.83;2.00;;;23.30;99.90;;;;;;5034803;28;20513;-84
2022/08/18 11:07:26;;;;;;;2.65;1.50;;;23.50;99.90;;;;;;5033761;28;20033;-84
2022/08/18 11:09:54;;;;;;;4.90;1.50;;;23.30;99.90;;;;;;5034482;28;20041;-85
2022/08/18 11:12:49;;;;;;;3.45;1.55;;;23.20;99.90;;;;;;5034196;28;20032;-84
2022/08/18 11:15:35;;;;;;;3.67;1.63;;;23.00;99.90;;;;;;5050396;28;20037;-85
2022/08/18 11:18:29;;;;;;;3.40;1.35;;;23.10;99.90;;;;;;5049659;28;20116;-83
2022/08/18 11:21:23;;;;;;;4.53;1.60;;;23.40;99.90;;;;;;5051613;28;20045;-85
2022/08/18 11:24:22;;;;;;;3.97;1.58;;;24.00;99.90;;;;;;5051586;28;20045;-86
2022/08/18 11:26:54;;;;;;;2.40;1.45;;;24.20;99.90;;;;;;5034451;28;20056;-84
2022/08/18 11:29:41;;;;;;;4.07;1.60;;;24.20;99.90;;;;;;5051121;28;20557;-84
2022/08/18 11:32:38;;;;;;;4.88;1.60;;;24.00;99.90;;;;;;5051310;28;20499;-85
2022/08/18 11:35:06;;;;;;;3.28;1.50;;;24.10;99.90;;;;;;5030939;28;20040;-83
2022/08/18 11:37:47;;;;;;;4.00;1.58;;;24.50;99.90;;;;;;5028352;28;20055;-85
2022/08/18 11:40:19;;;;;;;3.88;1.92;;;24.90;99.90;;;;;;5044394;28;20159;-83
2022/08/18 11:43:16;;;;;;;3.17;1.50;;;24.60;99.90;;;;;;5040824;28;20055;-83
2022/08/18 11:45:51;;;;;;;4.38;1.67;;;24.30;99.90;;;;;;5046277;28;20090;-84
2022/08/18 11:48:19;;;;;;;4.38;2.00;;;24.00;99.90;;;;;;5065893;28;20118;-85
2022/08/18 11:50:54;;;;;;;5.80;2.30;;;24.10;99.90;;;;;;5050668;28;20112;-82
2022/08/18 11:53:34;;;;;;;4.20;1.50;;;24.30;99.90;;;;;;5047218;28;20073;-83
2022/08/18 11:56:28;;;;;;;3.22;1.60;;;24.40;99.90;;;;;;5047489;28;20047;-84
2022/08/18 11:59:03;;;;;;;2.70;1.50;;;24.40;99.90;;;;;;5049888;28;20048;-87
2022/08/18 12:01:30;;;;;;;3.85;1.80;;;24.50;99.90;;;;;;5047169;28;20037;-85
2022/08/18 12:03:58;;;;;;;2.88;1.70;;;24.60;99.90;;;;;;5042789;28;20059;-84
2022/08/18 12:06:29;;;;;;;3.33;1.70;;;24.50;99.90;;;;;;5031186;28;20040;-82
2022/08/18 12:09:19;;;;;;;3.92;1.50;;;24.60;99.90;;;;;;5042850;28;20036;-87
2022/08/18 12:11:54;;;;;;;4.03;1.67;;;24.50;99.90;;;;;;5024877;28;20044;-84
2022/08/18 12:14:26;;;;;;;2.60;1.55;;;24.50;99.90;;;;;;5053530;28;20045;-85
2022/08/18 12:16:52;;;;;;;5.63;1.50;;;24.50;99.90;;;;;;5046371;28;20517;-84
2022/08/18 12:19:18;;;;;;;3.75;1.52;;;24.50;99.90;;;;;;5046987;28;20598;-84
2022/08/18 12:21:55;;;;;;;6.20;2.00;;;24.40;99.90;;;;;;5028288;28;20037;-82
2022/08/18 12:24:25;;;;;;;2.33;1.55;;;24.30;99.90;;;;;;5032197;28;20116;-83
2022/08/18 12:26:51;;;;;;;4.35;1.58;;;24.60;99.90;;;;;;5033158;28;20033;-84
2022/08/18 12:29:17;;;;;;;4.60;1.65;;;24.70;99.90;;;;;;5047587;28;20044;-84
2022/08/18 12:31:44;;;;;;;2.22;1.58;;;25.20;99.90;;;;;;5050354;28;20102;-85
2022/08/18 12:34:10;;;;;;;3.38;1.60;;;25.40;99.90;;;;;;5041829;28;20044;-85
2022/08/18 12:36:36;;;;;;;3.75;1.98;;;25.60;99.90;;;;;;5045692;28;20037;-86
2022/08/18 12:39:02;;;;;;;3.05;1.77;;;25.30;99.90;;;;;;5046865;28;20033;-83
2022/08/18 12:41:27;;;;;;;4.50;1.50;;;24.70;99.90;;;;;;5033393;28;20128;-86
2022/08/18 12:43:53;;;;;;;5.70;1.58;;;24.50;99.90;;;;;;5047553;28;20045;-84
2022/08/18 12:46:19;;;;;;;3.75;1.50;;;24.80;99.90;;;;;;5050002;28;20506;-84
2022/08/18 12:48:45;;;;;;;2.60;1.35;;;25.20;99.90;;;;;;5044280;28;20041;-83
2022/08/18 12:51:12;;;;;;;3.85;1.50;;;25.30;99.90;;;;;;5045384;28;20125;-85
2022/08/18 12:53:38;;;;;;;3.35;1.50;;;26.00;99.90;;;;;;5030170;28;20045;-86
2022/08/18 12:56:23;;;;;;;4.72;1.45;;;26.10;99.90;;;;;;5049868;28;20454;-83
2022/08/18 12:58:50;;;;;;;2.85;1.60;;;26.50;99.90;;;;;;5043760;28;20403;-85
2022/08/18 13:01:18;;;;;;;3.95;1.55;;;26.50;99.90;;;;;;5048746;28;20123;-84
2022/08/18 13:03:47;;;;;;;3.67;1.55;;;26.30;99.90;;;;;;5045900;28;20495;-84
2022/08/18 13:06:13;;;;;;;4.22;1.50;;;25.90;99.90;;;;;;5046494;28;20033;-83
2022/08/18 13:08:39;;;;;;;3.63;1.58;;;25.30;99.90;;;;;;5044555;28;20041;-84
2022/08/18 13:11:09;;;;;;;4.50;1.63;;;25.10;99.90;;;;;;5040829;28;20041;-83
2022/08/18 13:13:37;;;;;;;6.22;1.63;;;25.00;99.90;;;;;;5043919;28;20411;-85
2022/08/18 13:16:04;;;;;;;2.50;1.60;;;25.00;99.90;;;;;;5042933;28;20041;-83
2022/08/18 13:18:29;;;;;;;2.53;1.60;;;24.80;99.90;;;;;;5046566;28;20041;-85
2022/08/18 13:20:59;;;;;;;2.50;1.45;;;24.60;99.90;;;;;;5045371;28;21593;-86
2022/08/18 13:23:26;;;;;;;3.63;1.67;;;24.40;99.90;;;;;;5047295;28;20044;-85
2022/08/18 13:25:52;;;;;;;3.05;1.60;;;24.50;99.90;;;;;;5046592;28;20499;-84
2022/08/18 13:28:17;;;;;;;2.92;1.88;;;25.00;99.90;;;;;;5043022;28;20040;-86
2022/08/18 13:30:44;;;;;;;2.53;1.35;;;25.60;99.90;;;;;;5038703;28;20041;-83
2022/08/18 13:33:10;;;;;;;3.10;1.52;;;26.30;99.90;;;;;;5043428;28;20122;-86